sensor_id;sensor_type;location;lat;lon;timestamp;P1;durP1;ratioP1;P2;durP2;ratioP2
25123;SDS011;13104;51.030;4.686;2023-06-14T00:01:42;7.88;;;5.43;;
25123;SDS011;13104;51.030;4.686;2023-06-14T00:04:11;10.02;;;6.35;;
25123;SDS011;13104;51.030;4.686;2023-06-14T00:06:37;12.00;;;6.70;;
25123;SDS011;13104;51.030;4.686;2023-06-14T00:09:04;11.82;;;6.28;;
25123;SDS011;13104;51.030;4.686;2023-06-14T00:11:33;9.80;;;6.47;;
25123;SDS011;13104;51.030;4.686;2023-06-14T00:13:59;12.45;;;6.30;;
25123;SDS011;13104;51.030;4.686;2023-06-14T00:16:26;12.18;;;6.88;;
25123;SDS011;13104;51.030;4.686;2023-06-14T00:18:52;10.85;;;6.60;;
25123;SDS011;13104;51.030;4.686;2023-06-14T00:21:18;11.15;;;6.20;;
25123;SDS011;13104;51.030;4.686;2023-06-14T00:23:44;9.32;;;6.68;;
25123;SDS011;13104;51.030;4.686;2023-06-14T00:26:10;10.07;;;6.47;;
25123;SDS011;13104;51.030;4.686;2023-06-14T00:28:36;10.00;;;6.68;;
25123;SDS011;13104;51.030;4.686;2023-06-14T00:31:02;11.05;;;6.40;;
25123;SDS011;13104;51.030;4.686;2023-06-14T00:33:28;7.85;;;6.15;;
25123;SDS011;13104;51.030;4.686;2023-06-14T00:35:55;9.07;;;5.95;;
25123;SDS011;13104;51.030;4.686;2023-06-14T00:38:21;14.70;;;7.20;;
25123;SDS011;13104;51.030;4.686;2023-06-14T00:40:47;9.75;;;6.05;;
25123;SDS011;13104;51.030;4.686;2023-06-14T00:43:13;9.30;;;6.55;;
25123;SDS011;13104;51.030;4.686;2023-06-14T00:45:40;11.25;;;6.63;;
25123;SDS011;13104;51.030;4.686;2023-06-14T00:48:06;8.55;;;6.30;;
25123;SDS011;13104;51.030;4.686;2023-06-14T00:50:32;8.73;;;6.38;;
25123;SDS011;13104;51.030;4.686;2023-06-14T00:53:00;8.65;;;6.78;;
25123;SDS011;13104;51.030;4.686;2023-06-14T00:55:26;10.63;;;6.60;;
25123;SDS011;13104;51.030;4.686;2023-06-14T00:57:54;10.45;;;6.70;;
25123;SDS011;13104;51.030;4.686;2023-06-14T01:00:20;9.27;;;6.63;;
25123;SDS011;13104;51.030;4.686;2023-06-14T01:02:46;9.85;;;6.93;;
25123;SDS011;13104;51.030;4.686;2023-06-14T01:05:12;11.98;;;6.70;;
25123;SDS011;13104;51.030;4.686;2023-06-14T01:10:12;11.50;;;6.82;;
25123;SDS011;13104;51.030;4.686;2023-06-14T01:15:12;11.30;;;6.72;;
25123;SDS011;13104;51.030;4.686;2023-06-14T01:17:39;11.27;;;6.88;;
25123;SDS011;13104;51.030;4.686;2023-06-14T01:20:08;12.55;;;6.35;;
25123;SDS011;13104;51.030;4.686;2023-06-14T01:22:37;12.20;;;6.72;;
25123;SDS011;13104;51.030;4.686;2023-06-14T01:25:03;9.05;;;6.88;;
25123;SDS011;13104;51.030;4.686;2023-06-14T01:27:30;11.65;;;7.10;;
25123;SDS011;13104;51.030;4.686;2023-06-14T01:29:57;12.27;;;7.45;;
25123;SDS011;13104;51.030;4.686;2023-06-14T01:32:24;11.98;;;7.20;;
25123;SDS011;13104;51.030;4.686;2023-06-14T01:34:52;19.00;;;7.55;;
25123;SDS011;13104;51.030;4.686;2023-06-14T01:37:18;14.23;;;7.60;;
25123;SDS011;13104;51.030;4.686;2023-06-14T01:39:45;14.85;;;7.05;;
25123;SDS011;13104;51.030;4.686;2023-06-14T01:42:11;10.57;;;6.93;;
25123;SDS011;13104;51.030;4.686;2023-06-14T01:44:39;12.02;;;7.22;;
25123;SDS011;13104;51.030;4.686;2023-06-14T01:47:06;10.70;;;7.10;;
25123;SDS011;13104;51.030;4.686;2023-06-14T01:49:35;9.13;;;7.05;;
25123;SDS011;13104;51.030;4.686;2023-06-14T01:52:01;13.73;;;7.32;;
25123;SDS011;13104;51.030;4.686;2023-06-14T01:54:27;10.70;;;7.38;;
25123;SDS011;13104;51.030;4.686;2023-06-14T01:56:54;10.00;;;7.38;;
25123;SDS011;13104;51.030;4.686;2023-06-14T01:59:21;10.15;;;7.55;;
25123;SDS011;13104;51.030;4.686;2023-06-14T02:01:47;10.48;;;7.53;;
25123;SDS011;13104;51.030;4.686;2023-06-14T02:04:13;10.93;;;7.43;;
25123;SDS011;13104;51.030;4.686;2023-06-14T02:06:39;13.95;;;7.55;;
25123;SDS011;13104;51.030;4.686;2023-06-14T02:09:05;19.25;;;8.13;;
25123;SDS011;13104;51.030;4.686;2023-06-14T02:11:32;13.75;;;7.95;;
25123;SDS011;13104;51.030;4.686;2023-06-14T02:13:58;14.27;;;7.80;;
25123;SDS011;13104;51.030;4.686;2023-06-14T02:16:25;11.30;;;7.05;;
25123;SDS011;13104;51.030;4.686;2023-06-14T02:18:53;11.13;;;7.68;;
25123;SDS011;13104;51.030;4.686;2023-06-14T02:21:19;11.18;;;7.75;;
25123;SDS011;13104;51.030;4.686;2023-06-14T02:23:45;11.55;;;7.80;;
25123;SDS011;13104;51.030;4.686;2023-06-14T02:26:11;12.45;;;7.97;;
25123;SDS011;13104;51.030;4.686;2023-06-14T02:28:37;15.68;;;7.65;;
25123;SDS011;13104;51.030;4.686;2023-06-14T02:31:03;11.90;;;7.32;;
25123;SDS011;13104;51.030;4.686;2023-06-14T02:33:29;13.70;;;8.52;;
25123;SDS011;13104;51.030;4.686;2023-06-14T02:35:55;12.43;;;7.95;;
25123;SDS011;13104;51.030;4.686;2023-06-14T02:38:22;12.35;;;7.90;;
25123;SDS011;13104;51.030;4.686;2023-06-14T02:40:48;14.85;;;7.53;;
25123;SDS011;13104;51.030;4.686;2023-06-14T02:43:14;13.32;;;8.15;;
25123;SDS011;13104;51.030;4.686;2023-06-14T02:45:42;12.80;;;8.38;;
25123;SDS011;13104;51.030;4.686;2023-06-14T02:48:08;17.05;;;7.78;;
25123;SDS011;13104;51.030;4.686;2023-06-14T02:50:36;15.02;;;7.47;;
25123;SDS011;13104;51.030;4.686;2023-06-14T02:53:02;9.48;;;7.97;;
25123;SDS011;13104;51.030;4.686;2023-06-14T02:55:28;11.88;;;8.27;;
25123;SDS011;13104;51.030;4.686;2023-06-14T02:57:54;12.07;;;7.80;;
25123;SDS011;13104;51.030;4.686;2023-06-14T03:00:20;10.10;;;7.35;;
25123;SDS011;13104;51.030;4.686;2023-06-14T03:02:46;10.43;;;7.60;;
25123;SDS011;13104;51.030;4.686;2023-06-14T03:05:13;12.40;;;8.23;;
25123;SDS011;13104;51.030;4.686;2023-06-14T03:07:39;15.65;;;8.40;;
25123;SDS011;13104;51.030;4.686;2023-06-14T03:10:07;12.90;;;8.30;;
25123;SDS011;13104;51.030;4.686;2023-06-14T03:12:34;12.20;;;7.97;;
25123;SDS011;13104;51.030;4.686;2023-06-14T03:15:01;10.57;;;7.63;;
25123;SDS011;13104;51.030;4.686;2023-06-14T03:17:28;10.00;;;7.80;;
25123;SDS011;13104;51.030;4.686;2023-06-14T03:19:55;12.70;;;7.28;;
25123;SDS011;13104;51.030;4.686;2023-06-14T03:22:21;12.75;;;7.88;;
25123;SDS011;13104;51.030;4.686;2023-06-14T03:24:47;14.60;;;8.52;;
25123;SDS011;13104;51.030;4.686;2023-06-14T03:27:13;13.05;;;8.63;;
25123;SDS011;13104;51.030;4.686;2023-06-14T03:29:39;13.98;;;8.27;;
25123;SDS011;13104;51.030;4.686;2023-06-14T03:32:06;12.30;;;8.40;;
25123;SDS011;13104;51.030;4.686;2023-06-14T03:34:32;11.15;;;7.63;;
25123;SDS011;13104;51.030;4.686;2023-06-14T03:36:58;12.52;;;8.10;;
25123;SDS011;13104;51.030;4.686;2023-06-14T03:39:24;14.30;;;8.13;;
25123;SDS011;13104;51.030;4.686;2023-06-14T03:41:50;11.73;;;7.93;;
25123;SDS011;13104;51.030;4.686;2023-06-14T03:44:17;16.45;;;8.45;;
25123;SDS011;13104;51.030;4.686;2023-06-14T03:46:44;13.38;;;8.00;;
25123;SDS011;13104;51.030;4.686;2023-06-14T03:49:11;10.90;;;7.95;;
25123;SDS011;13104;51.030;4.686;2023-06-14T03:51:37;11.13;;;7.85;;
25123;SDS011;13104;51.030;4.686;2023-06-14T03:54:03;12.10;;;8.13;;
25123;SDS011;13104;51.030;4.686;2023-06-14T03:56:29;13.98;;;8.55;;
25123;SDS011;13104;51.030;4.686;2023-06-14T03:58:55;14.27;;;8.63;;
25123;SDS011;13104;51.030;4.686;2023-06-14T04:01:22;13.60;;;8.23;;
25123;SDS011;13104;51.030;4.686;2023-06-14T04:03:55;12.07;;;8.27;;
25123;SDS011;13104;51.030;4.686;2023-06-14T04:06:21;10.80;;;8.05;;
25123;SDS011;13104;51.030;4.686;2023-06-14T04:08:50;14.43;;;8.05;;
25123;SDS011;13104;51.030;4.686;2023-06-14T04:11:16;13.63;;;8.07;;
25123;SDS011;13104;51.030;4.686;2023-06-14T04:13:42;12.25;;;7.88;;
25123;SDS011;13104;51.030;4.686;2023-06-14T04:16:08;15.65;;;7.80;;
25123;SDS011;13104;51.030;4.686;2023-06-14T04:18:34;12.63;;;7.70;;
25123;SDS011;13104;51.030;4.686;2023-06-14T04:21:01;11.52;;;8.15;;
25123;SDS011;13104;51.030;4.686;2023-06-14T04:23:27;12.43;;;7.10;;
25123;SDS011;13104;51.030;4.686;2023-06-14T04:25:53;14.52;;;7.75;;
25123;SDS011;13104;51.030;4.686;2023-06-14T04:28:19;11.82;;;7.78;;
25123;SDS011;13104;51.030;4.686;2023-06-14T04:30:50;8.93;;;7.07;;
25123;SDS011;13104;51.030;4.686;2023-06-14T04:33:18;11.15;;;7.43;;
25123;SDS011;13104;51.030;4.686;2023-06-14T04:35:44;13.13;;;8.18;;
25123;SDS011;13104;51.030;4.686;2023-06-14T04:38:12;18.17;;;7.65;;
25123;SDS011;13104;51.030;4.686;2023-06-14T04:40:41;10.20;;;7.50;;
25123;SDS011;13104;51.030;4.686;2023-06-14T04:43:11;15.30;;;8.48;;
25123;SDS011;13104;51.030;4.686;2023-06-14T04:45:37;10.27;;;7.75;;
25123;SDS011;13104;51.030;4.686;2023-06-14T04:48:04;10.05;;;7.70;;
25123;SDS011;13104;51.030;4.686;2023-06-14T04:50:31;13.00;;;8.15;;
25123;SDS011;13104;51.030;4.686;2023-06-14T04:52:58;13.68;;;8.07;;
25123;SDS011;13104;51.030;4.686;2023-06-14T04:55:24;11.63;;;7.80;;
25123;SDS011;13104;51.030;4.686;2023-06-14T04:57:51;13.20;;;8.40;;
25123;SDS011;13104;51.030;4.686;2023-06-14T05:00:20;14.90;;;8.50;;
25123;SDS011;13104;51.030;4.686;2023-06-14T05:02:48;11.77;;;7.85;;
25123;SDS011;13104;51.030;4.686;2023-06-14T05:05:17;15.00;;;7.95;;
25123;SDS011;13104;51.030;4.686;2023-06-14T05:07:44;12.05;;;8.15;;
25123;SDS011;13104;51.030;4.686;2023-06-14T05:10:11;9.50;;;7.38;;
25123;SDS011;13104;51.030;4.686;2023-06-14T05:12:37;15.52;;;7.20;;
25123;SDS011;13104;51.030;4.686;2023-06-14T05:15:03;15.73;;;7.93;;
25123;SDS011;13104;51.030;4.686;2023-06-14T05:17:30;14.30;;;7.95;;
25123;SDS011;13104;51.030;4.686;2023-06-14T05:19:56;13.05;;;7.15;;
25123;SDS011;13104;51.030;4.686;2023-06-14T05:22:22;16.92;;;8.60;;
25123;SDS011;13104;51.030;4.686;2023-06-14T05:24:48;12.80;;;7.63;;
25123;SDS011;13104;51.030;4.686;2023-06-14T05:27:14;14.02;;;7.63;;
25123;SDS011;13104;51.030;4.686;2023-06-14T05:29:40;16.90;;;7.97;;
25123;SDS011;13104;51.030;4.686;2023-06-14T05:32:07;12.98;;;7.80;;
25123;SDS011;13104;51.030;4.686;2023-06-14T05:34:33;17.83;;;8.43;;
25123;SDS011;13104;51.030;4.686;2023-06-14T05:36:59;11.65;;;8.05;;
25123;SDS011;13104;51.030;4.686;2023-06-14T05:39:25;18.15;;;7.88;;
25123;SDS011;13104;51.030;4.686;2023-06-14T05:41:51;14.98;;;7.40;;
25123;SDS011;13104;51.030;4.686;2023-06-14T05:44:18;12.27;;;7.78;;
25123;SDS011;13104;51.030;4.686;2023-06-14T05:46:44;16.75;;;7.65;;
25123;SDS011;13104;51.030;4.686;2023-06-14T05:49:10;9.65;;;7.25;;
25123;SDS011;13104;51.030;4.686;2023-06-14T05:51:37;11.27;;;7.88;;
25123;SDS011;13104;51.030;4.686;2023-06-14T05:54:03;10.98;;;7.18;;
25123;SDS011;13104;51.030;4.686;2023-06-14T05:56:29;13.98;;;8.13;;
25123;SDS011;13104;51.030;4.686;2023-06-14T05:58:55;11.52;;;8.07;;
25123;SDS011;13104;51.030;4.686;2023-06-14T06:01:22;15.95;;;8.02;;
25123;SDS011;13104;51.030;4.686;2023-06-14T06:03:48;10.90;;;7.43;;
25123;SDS011;13104;51.030;4.686;2023-06-14T06:06:14;14.40;;;7.80;;
25123;SDS011;13104;51.030;4.686;2023-06-14T06:08:41;14.73;;;7.70;;
25123;SDS011;13104;51.030;4.686;2023-06-14T06:11:08;13.38;;;7.25;;
25123;SDS011;13104;51.030;4.686;2023-06-14T06:13:34;11.38;;;7.85;;
25123;SDS011;13104;51.030;4.686;2023-06-14T06:16:01;11.18;;;7.88;;
25123;SDS011;13104;51.030;4.686;2023-06-14T06:18:27;10.43;;;7.35;;
25123;SDS011;13104;51.030;4.686;2023-06-14T06:20:53;11.88;;;7.00;;
25123;SDS011;13104;51.030;4.686;2023-06-14T06:23:20;16.38;;;7.40;;
25123;SDS011;13104;51.030;4.686;2023-06-14T06:25:46;14.27;;;7.30;;
25123;SDS011;13104;51.030;4.686;2023-06-14T06:28:12;12.13;;;7.13;;
25123;SDS011;13104;51.030;4.686;2023-06-14T06:30:39;11.20;;;7.70;;
25123;SDS011;13104;51.030;4.686;2023-06-14T06:33:05;13.55;;;7.30;;
25123;SDS011;13104;51.030;4.686;2023-06-14T06:35:31;12.65;;;6.90;;
25123;SDS011;13104;51.030;4.686;2023-06-14T06:37:58;11.57;;;6.60;;
25123;SDS011;13104;51.030;4.686;2023-06-14T06:40:24;11.73;;;7.15;;
25123;SDS011;13104;51.030;4.686;2023-06-14T06:42:50;11.75;;;6.20;;
25123;SDS011;13104;51.030;4.686;2023-06-14T06:45:17;8.52;;;6.88;;
25123;SDS011;13104;51.030;4.686;2023-06-14T06:47:43;13.30;;;6.75;;
25123;SDS011;13104;51.030;4.686;2023-06-14T06:50:09;10.43;;;7.10;;
25123;SDS011;13104;51.030;4.686;2023-06-14T06:52:35;12.38;;;6.90;;
25123;SDS011;13104;51.030;4.686;2023-06-14T06:55:01;11.90;;;6.68;;
25123;SDS011;13104;51.030;4.686;2023-06-14T06:57:28;10.20;;;6.63;;
25123;SDS011;13104;51.030;4.686;2023-06-14T06:59:54;13.88;;;6.68;;
25123;SDS011;13104;51.030;4.686;2023-06-14T07:02:20;11.38;;;6.45;;
25123;SDS011;13104;51.030;4.686;2023-06-14T07:04:46;12.57;;;6.50;;
25123;SDS011;13104;51.030;4.686;2023-06-14T07:07:12;13.25;;;7.15;;
25123;SDS011;13104;51.030;4.686;2023-06-14T07:09:39;9.65;;;6.22;;
25123;SDS011;13104;51.030;4.686;2023-06-14T07:12:07;11.40;;;7.53;;
25123;SDS011;13104;51.030;4.686;2023-06-14T07:14:33;11.20;;;6.50;;
25123;SDS011;13104;51.030;4.686;2023-06-14T07:16:59;14.45;;;6.70;;
25123;SDS011;13104;51.030;4.686;2023-06-14T07:19:25;14.95;;;6.55;;
25123;SDS011;13104;51.030;4.686;2023-06-14T07:21:52;10.80;;;6.53;;
25123;SDS011;13104;51.030;4.686;2023-06-14T07:24:18;10.82;;;7.07;;
25123;SDS011;13104;51.030;4.686;2023-06-14T07:26:46;12.40;;;6.95;;
25123;SDS011;13104;51.030;4.686;2023-06-14T07:29:14;10.70;;;6.93;;
25123;SDS011;13104;51.030;4.686;2023-06-14T07:31:41;13.60;;;6.75;;
25123;SDS011;13104;51.030;4.686;2023-06-14T07:34:08;13.00;;;7.05;;
25123;SDS011;13104;51.030;4.686;2023-06-14T07:36:34;12.23;;;6.43;;
25123;SDS011;13104;51.030;4.686;2023-06-14T07:39:01;10.15;;;6.28;;
25123;SDS011;13104;51.030;4.686;2023-06-14T07:41:28;10.55;;;6.55;;
25123;SDS011;13104;51.030;4.686;2023-06-14T07:43:54;11.80;;;6.10;;
25123;SDS011;13104;51.030;4.686;2023-06-14T07:46:20;14.63;;;6.70;;
25123;SDS011;13104;51.030;4.686;2023-06-14T07:48:47;9.98;;;5.88;;
25123;SDS011;13104;51.030;4.686;2023-06-14T07:51:13;16.23;;;6.90;;
25123;SDS011;13104;51.030;4.686;2023-06-14T07:53:39;9.52;;;6.15;;
25123;SDS011;13104;51.030;4.686;2023-06-14T07:56:06;14.73;;;6.20;;
25123;SDS011;13104;51.030;4.686;2023-06-14T07:58:32;15.02;;;6.82;;
25123;SDS011;13104;51.030;4.686;2023-06-14T08:00:59;15.23;;;7.05;;
25123;SDS011;13104;51.030;4.686;2023-06-14T08:03:26;11.40;;;6.55;;
25123;SDS011;13104;51.030;4.686;2023-06-14T08:05:53;12.07;;;6.53;;
25123;SDS011;13104;51.030;4.686;2023-06-14T08:08:19;14.88;;;6.60;;
25123;SDS011;13104;51.030;4.686;2023-06-14T08:10:45;12.90;;;6.95;;
25123;SDS011;13104;51.030;4.686;2023-06-14T08:13:11;11.23;;;6.63;;
25123;SDS011;13104;51.030;4.686;2023-06-14T08:15:37;15.25;;;6.60;;
25123;SDS011;13104;51.030;4.686;2023-06-14T08:18:03;13.18;;;6.13;;
25123;SDS011;13104;51.030;4.686;2023-06-14T08:20:29;7.65;;;5.47;;
25123;SDS011;13104;51.030;4.686;2023-06-14T08:22:56;9.52;;;5.95;;
25123;SDS011;13104;51.030;4.686;2023-06-14T08:25:23;13.10;;;5.72;;
25123;SDS011;13104;51.030;4.686;2023-06-14T08:27:49;11.88;;;5.97;;
25123;SDS011;13104;51.030;4.686;2023-06-14T08:30:16;11.15;;;6.28;;
25123;SDS011;13104;51.030;4.686;2023-06-14T08:32:42;13.30;;;5.68;;
25123;SDS011;13104;51.030;4.686;2023-06-14T08:35:08;9.90;;;4.88;;
25123;SDS011;13104;51.030;4.686;2023-06-14T08:37:41;10.38;;;5.85;;
25123;SDS011;13104;51.030;4.686;2023-06-14T08:40:20;12.32;;;5.82;;
25123;SDS011;13104;51.030;4.686;2023-06-14T08:42:50;8.30;;;5.40;;
25123;SDS011;13104;51.030;4.686;2023-06-14T08:45:16;8.40;;;5.38;;
25123;SDS011;13104;51.030;4.686;2023-06-14T08:47:43;9.80;;;5.32;;
25123;SDS011;13104;51.030;4.686;2023-06-14T08:50:10;11.93;;;5.60;;
25123;SDS011;13104;51.030;4.686;2023-06-14T08:52:37;12.55;;;6.40;;
25123;SDS011;13104;51.030;4.686;2023-06-14T08:55:10;8.85;;;5.80;;
25123;SDS011;13104;51.030;4.686;2023-06-14T08:57:37;10.85;;;5.30;;
25123;SDS011;13104;51.030;4.686;2023-06-14T09:00:05;9.40;;;5.40;;
25123;SDS011;13104;51.030;4.686;2023-06-14T09:02:38;11.00;;;5.80;;
25123;SDS011;13104;51.030;4.686;2023-06-14T09:05:09;9.93;;;5.25;;
25123;SDS011;13104;51.030;4.686;2023-06-14T09:07:38;9.57;;;5.22;;
25123;SDS011;13104;51.030;4.686;2023-06-14T09:10:09;11.20;;;5.32;;
25123;SDS011;13104;51.030;4.686;2023-06-14T09:12:35;12.52;;;5.90;;
25123;SDS011;13104;51.030;4.686;2023-06-14T09:15:03;10.95;;;5.03;;
25123;SDS011;13104;51.030;4.686;2023-06-14T09:17:34;8.90;;;5.05;;
25123;SDS011;13104;51.030;4.686;2023-06-14T09:20:01;7.45;;;4.80;;
25123;SDS011;13104;51.030;4.686;2023-06-14T09:22:30;10.77;;;5.20;;
25123;SDS011;13104;51.030;4.686;2023-06-14T09:24:56;16.40;;;4.90;;
25123;SDS011;13104;51.030;4.686;2023-06-14T09:27:22;12.88;;;5.22;;
25123;SDS011;13104;51.030;4.686;2023-06-14T09:29:49;9.48;;;4.78;;
25123;SDS011;13104;51.030;4.686;2023-06-14T09:32:16;9.63;;;4.65;;
25123;SDS011;13104;51.030;4.686;2023-06-14T09:34:42;10.43;;;4.68;;
25123;SDS011;13104;51.030;4.686;2023-06-14T09:37:08;11.15;;;4.65;;
25123;SDS011;13104;51.030;4.686;2023-06-14T09:39:34;6.68;;;4.18;;
25123;SDS011;13104;51.030;4.686;2023-06-14T09:42:00;15.02;;;4.53;;
25123;SDS011;13104;51.030;4.686;2023-06-14T09:44:27;11.60;;;4.50;;
25123;SDS011;13104;51.030;4.686;2023-06-14T09:46:56;6.53;;;4.20;;
25123;SDS011;13104;51.030;4.686;2023-06-14T09:49:22;7.60;;;3.95;;
25123;SDS011;13104;51.030;4.686;2023-06-14T09:51:50;10.65;;;4.35;;
25123;SDS011;13104;51.030;4.686;2023-06-14T09:54:17;8.60;;;3.60;;
25123;SDS011;13104;51.030;4.686;2023-06-14T09:56:47;10.52;;;4.18;;
25123;SDS011;13104;51.030;4.686;2023-06-14T09:59:14;12.15;;;4.10;;
25123;SDS011;13104;51.030;4.686;2023-06-14T10:01:42;10.45;;;4.38;;
25123;SDS011;13104;51.030;4.686;2023-06-14T10:04:09;9.45;;;4.20;;
25123;SDS011;13104;51.030;4.686;2023-06-14T10:06:43;9.60;;;3.80;;
25123;SDS011;13104;51.030;4.686;2023-06-14T10:09:09;7.60;;;3.77;;
25123;SDS011;13104;51.030;4.686;2023-06-14T10:11:36;5.28;;;3.85;;
25123;SDS011;13104;51.030;4.686;2023-06-14T10:14:05;13.63;;;4.10;;
25123;SDS011;13104;51.030;4.686;2023-06-14T10:16:33;12.68;;;3.88;;
25123;SDS011;13104;51.030;4.686;2023-06-14T10:24:12;15.18;;;4.57;;
25123;SDS011;13104;51.030;4.686;2023-06-14T10:27:00;14.93;;;3.63;;
25123;SDS011;13104;51.030;4.686;2023-06-14T10:29:26;7.13;;;3.63;;
25123;SDS011;13104;51.030;4.686;2023-06-14T10:31:57;10.40;;;3.97;;
25123;SDS011;13104;51.030;4.686;2023-06-14T10:34:28;6.65;;;3.90;;
25123;SDS011;13104;51.030;4.686;2023-06-14T10:37:01;9.68;;;3.75;;
25123;SDS011;13104;51.030;4.686;2023-06-14T10:39:30;7.32;;;3.80;;
25123;SDS011;13104;51.030;4.686;2023-06-14T10:41:57;8.88;;;3.58;;
25123;SDS011;13104;51.030;4.686;2023-06-14T10:46:49;7.10;;;3.60;;
25123;SDS011;13104;51.030;4.686;2023-06-14T10:49:18;9.80;;;3.75;;
25123;SDS011;13104;51.030;4.686;2023-06-14T10:51:44;9.05;;;3.55;;
25123;SDS011;13104;51.030;4.686;2023-06-14T10:54:17;9.73;;;3.38;;
25123;SDS011;13104;51.030;4.686;2023-06-14T10:59:12;8.07;;;3.60;;
25123;SDS011;13104;51.030;4.686;2023-06-14T11:01:41;8.90;;;3.53;;
25123;SDS011;13104;51.030;4.686;2023-06-14T11:04:10;10.35;;;3.65;;
25123;SDS011;13104;51.030;4.686;2023-06-14T11:06:44;9.32;;;3.45;;
25123;SDS011;13104;51.030;4.686;2023-06-14T11:11:37;10.77;;;3.17;;
25123;SDS011;13104;51.030;4.686;2023-06-14T11:14:04;9.68;;;3.78;;
25123;SDS011;13104;51.030;4.686;2023-06-14T11:16:30;7.57;;;3.72;;
25123;SDS011;13104;51.030;4.686;2023-06-14T11:18:59;7.20;;;3.13;;
25123;SDS011;13104;51.030;4.686;2023-06-14T11:21:26;4.93;;;3.22;;
25123;SDS011;13104;51.030;4.686;2023-06-14T11:23:56;8.57;;;3.70;;
25123;SDS011;13104;51.030;4.686;2023-06-14T11:26:29;11.15;;;3.35;;
25123;SDS011;13104;51.030;4.686;2023-06-14T11:28:59;7.88;;;3.30;;
25123;SDS011;13104;51.030;4.686;2023-06-14T11:31:29;8.98;;;3.33;;
25123;SDS011;13104;51.030;4.686;2023-06-14T11:33:56;5.07;;;3.13;;
25123;SDS011;13104;51.030;4.686;2023-06-14T11:36:23;8.23;;;3.47;;
25123;SDS011;13104;51.030;4.686;2023-06-14T11:38:49;5.60;;;2.88;;
25123;SDS011;13104;51.030;4.686;2023-06-14T11:41:15;6.75;;;3.08;;
25123;SDS011;13104;51.030;4.686;2023-06-14T11:43:41;7.40;;;3.15;;
25123;SDS011;13104;51.030;4.686;2023-06-14T11:46:14;7.20;;;3.03;;
25123;SDS011;13104;51.030;4.686;2023-06-14T11:48:47;6.55;;;2.97;;
25123;SDS011;13104;51.030;4.686;2023-06-14T11:51:13;10.60;;;3.38;;
25123;SDS011;13104;51.030;4.686;2023-06-14T11:53:39;5.97;;;3.20;;
25123;SDS011;13104;51.030;4.686;2023-06-14T11:56:06;8.50;;;2.85;;
25123;SDS011;13104;51.030;4.686;2023-06-14T11:58:32;6.97;;;2.97;;
25123;SDS011;13104;51.030;4.686;2023-06-14T12:00:58;6.97;;;2.80;;
25123;SDS011;13104;51.030;4.686;2023-06-14T12:03:25;5.63;;;3.10;;
25123;SDS011;13104;51.030;4.686;2023-06-14T12:06:07;6.20;;;2.90;;
25123;SDS011;13104;51.030;4.686;2023-06-14T12:08:34;9.35;;;2.85;;
25123;SDS011;13104;51.030;4.686;2023-06-14T12:11:05;5.32;;;2.70;;
25123;SDS011;13104;51.030;4.686;2023-06-14T12:13:33;5.80;;;2.85;;
25123;SDS011;13104;51.030;4.686;2023-06-14T12:15:59;7.60;;;2.90;;
25123;SDS011;13104;51.030;4.686;2023-06-14T12:18:33;6.03;;;2.80;;
25123;SDS011;13104;51.030;4.686;2023-06-14T12:20:59;10.18;;;2.90;;
25123;SDS011;13104;51.030;4.686;2023-06-14T12:26:05;9.02;;;2.55;;
25123;SDS011;13104;51.030;4.686;2023-06-14T12:28:31;4.75;;;2.28;;
25123;SDS011;13104;51.030;4.686;2023-06-14T12:30:58;5.63;;;2.78;;
25123;SDS011;13104;51.030;4.686;2023-06-14T12:33:24;7.15;;;2.78;;
25123;SDS011;13104;51.030;4.686;2023-06-14T12:35:51;6.57;;;2.17;;
25123;SDS011;13104;51.030;4.686;2023-06-14T12:38:17;7.53;;;2.60;;
25123;SDS011;13104;51.030;4.686;2023-06-14T12:40:43;11.18;;;2.78;;
25123;SDS011;13104;51.030;4.686;2023-06-14T12:43:09;6.90;;;2.28;;
25123;SDS011;13104;51.030;4.686;2023-06-14T12:45:35;5.45;;;2.15;;
25123;SDS011;13104;51.030;4.686;2023-06-14T12:48:01;5.63;;;2.00;;
25123;SDS011;13104;51.030;4.686;2023-06-14T12:50:28;6.25;;;2.40;;
25123;SDS011;13104;51.030;4.686;2023-06-14T12:52:54;5.40;;;1.98;;
25123;SDS011;13104;51.030;4.686;2023-06-14T12:55:20;5.22;;;1.92;;
25123;SDS011;13104;51.030;4.686;2023-06-14T12:57:46;3.05;;;1.85;;
25123;SDS011;13104;51.030;4.686;2023-06-14T13:00:14;5.95;;;2.00;;
25123;SDS011;13104;51.030;4.686;2023-06-14T13:02:42;8.05;;;2.05;;
25123;SDS011;13104;51.030;4.686;2023-06-14T13:05:08;3.72;;;1.60;;
25123;SDS011;13104;51.030;4.686;2023-06-14T13:07:34;4.50;;;1.95;;
25123;SDS011;13104;51.030;4.686;2023-06-14T13:10:01;4.28;;;1.90;;
25123;SDS011;13104;51.030;4.686;2023-06-14T13:12:27;2.72;;;1.55;;
25123;SDS011;13104;51.030;4.686;2023-06-14T13:14:53;6.90;;;1.70;;
25123;SDS011;13104;51.030;4.686;2023-06-14T13:17:19;3.42;;;1.90;;
25123;SDS011;13104;51.030;4.686;2023-06-14T13:19:46;3.15;;;1.60;;
25123;SDS011;13104;51.030;4.686;2023-06-14T13:22:12;3.50;;;1.27;;
25123;SDS011;13104;51.030;4.686;2023-06-14T13:24:38;5.93;;;1.38;;
25123;SDS011;13104;51.030;4.686;2023-06-14T13:27:04;3.40;;;1.60;;
25123;SDS011;13104;51.030;4.686;2023-06-14T13:29:30;2.65;;;1.65;;
25123;SDS011;13104;51.030;4.686;2023-06-14T13:31:58;2.40;;;1.50;;
25123;SDS011;13104;51.030;4.686;2023-06-14T13:34:25;4.25;;;1.63;;
25123;SDS011;13104;51.030;4.686;2023-06-14T13:36:51;6.85;;;1.77;;
25123;SDS011;13104;51.030;4.686;2023-06-14T13:39:17;5.47;;;1.67;;
25123;SDS011;13104;51.030;4.686;2023-06-14T13:41:43;3.28;;;1.63;;
25123;SDS011;13104;51.030;4.686;2023-06-14T13:44:09;2.45;;;1.60;;
25123;SDS011;13104;51.030;4.686;2023-06-14T13:46:40;3.72;;;1.85;;
25123;SDS011;13104;51.030;4.686;2023-06-14T13:49:07;2.85;;;1.70;;
25123;SDS011;13104;51.030;4.686;2023-06-14T13:51:34;6.32;;;1.80;;
25123;SDS011;13104;51.030;4.686;2023-06-14T13:54:00;4.65;;;1.60;;
25123;SDS011;13104;51.030;4.686;2023-06-14T13:56:26;9.80;;;1.98;;
25123;SDS011;13104;51.030;4.686;2023-06-14T13:58:52;4.18;;;1.85;;
25123;SDS011;13104;51.030;4.686;2023-06-14T14:01:18;4.20;;;1.80;;
25123;SDS011;13104;51.030;4.686;2023-06-14T14:03:45;5.40;;;1.80;;
25123;SDS011;13104;51.030;4.686;2023-06-14T14:06:12;6.00;;;1.70;;
25123;SDS011;13104;51.030;4.686;2023-06-14T14:08:38;6.63;;;1.83;;
25123;SDS011;13104;51.030;4.686;2023-06-14T14:11:05;3.67;;;1.60;;
25123;SDS011;13104;51.030;4.686;2023-06-14T14:13:31;6.65;;;1.80;;
25123;SDS011;13104;51.030;4.686;2023-06-14T14:15:57;3.25;;;1.67;;
25123;SDS011;13104;51.030;4.686;2023-06-14T14:18:24;1.80;;;1.50;;
25123;SDS011;13104;51.030;4.686;2023-06-14T14:20:50;4.72;;;1.88;;
25123;SDS011;13104;51.030;4.686;2023-06-14T14:23:16;4.07;;;1.80;;
25123;SDS011;13104;51.030;4.686;2023-06-14T14:25:42;3.58;;;1.75;;
25123;SDS011;13104;51.030;4.686;2023-06-14T14:28:08;5.55;;;1.85;;
25123;SDS011;13104;51.030;4.686;2023-06-14T14:30:36;3.95;;;1.55;;
25123;SDS011;13104;51.030;4.686;2023-06-14T14:33:04;2.60;;;1.77;;
25123;SDS011;13104;51.030;4.686;2023-06-14T14:35:31;4.45;;;1.60;;
25123;SDS011;13104;51.030;4.686;2023-06-14T14:37:57;4.28;;;1.83;;
25123;SDS011;13104;51.030;4.686;2023-06-14T14:40:24;5.32;;;1.77;;
25123;SDS011;13104;51.030;4.686;2023-06-14T14:42:50;2.45;;;1.70;;
25123;SDS011;13104;51.030;4.686;2023-06-14T14:45:16;5.50;;;1.70;;
25123;SDS011;13104;51.030;4.686;2023-06-14T14:47:42;4.40;;;1.95;;
25123;SDS011;13104;51.030;4.686;2023-06-14T14:50:10;5.97;;;1.80;;
25123;SDS011;13104;51.030;4.686;2023-06-14T14:52:36;4.53;;;1.90;;
25123;SDS011;13104;51.030;4.686;2023-06-14T14:55:02;5.57;;;1.98;;
25123;SDS011;13104;51.030;4.686;2023-06-14T14:57:29;5.63;;;1.67;;
25123;SDS011;13104;51.030;4.686;2023-06-14T14:59:56;3.17;;;1.88;;